createdAt,value
2023-05-24T00:01:04.033Z,6.47
2023-05-24T00:03:34.988Z,5.18
2023-05-24T00:06:07.078Z,6.28
2023-05-24T00:08:35.348Z,4.03
2023-05-24T00:11:03.640Z,4.75
2023-05-24T00:13:31.907Z,4.03
2023-05-24T00:16:00.195Z,5.35
2023-05-24T00:18:31.261Z,4.30
2023-05-24T00:20:59.793Z,4.53
2023-05-24T00:23:29.370Z,4.82
2023-05-24T00:25:57.682Z,5.07
2023-05-24T00:28:25.956Z,5.53
2023-05-24T00:30:54.228Z,5.18
2023-05-24T00:33:23.431Z,5.35
2023-05-24T00:35:56.233Z,7.03
2023-05-24T00:38:24.939Z,4.28
2023-05-24T00:40:57.405Z,5.03
2023-05-24T00:43:26.077Z,4.53
2023-05-24T00:46:14.319Z,5.45
2023-05-24T00:48:43.071Z,4.45
2023-05-24T00:51:12.741Z,4.20
2023-05-24T00:53:42.490Z,6.63
2023-05-24T00:56:14.022Z,4.57
2023-05-24T00:58:42.741Z,5.00
2023-05-24T01:01:12.111Z,6.00
2023-05-24T01:03:41.773Z,4.55
2023-05-24T01:06:10.625Z,5.18
2023-05-24T01:08:49.144Z,5.03
2023-05-24T01:11:30.155Z,5.03
2023-05-24T01:14:09.208Z,4.63
2023-05-24T01:16:46.656Z,7.38
2023-05-24T01:19:45.503Z,5.20
2023-05-24T01:22:29.639Z,6.07
2023-05-24T01:25:05.089Z,5.90
2023-05-24T01:27:37.235Z,6.03
2023-05-24T01:30:06.229Z,5.88
2023-05-24T01:32:34.800Z,7.25
2023-05-24T01:35:03.460Z,6.63
2023-05-24T01:37:31.669Z,5.90
2023-05-24T01:40:00.344Z,6.85
2023-05-24T01:42:37.640Z,7.13
2023-05-24T01:45:14.296Z,5.40
2023-05-24T01:47:54.688Z,6.78
2023-05-24T01:50:28.241Z,6.80
2023-05-24T01:52:59.015Z,7.65
2023-05-24T01:55:29.254Z,6.73
2023-05-24T01:58:02.976Z,7.85
2023-05-24T02:00:33.929Z,6.85
2023-05-24T02:03:03.856Z,6.72
2023-05-24T02:05:33.985Z,5.70
2023-05-24T02:08:07.279Z,6.80
2023-05-24T02:10:38.374Z,7.18
2023-05-24T02:13:08.552Z,8.18
2023-05-24T02:15:37.116Z,6.20
2023-05-24T02:18:08.106Z,6.68
2023-05-24T02:20:37.841Z,6.85
2023-05-24T02:23:06.285Z,6.82
2023-05-24T02:25:34.815Z,7.00
2023-05-24T02:28:03.325Z,7.15
2023-05-24T02:30:33.191Z,7.75
2023-05-24T02:33:02.200Z,6.28
2023-05-24T02:35:30.655Z,7.03
2023-05-24T02:37:58.996Z,6.50
2023-05-24T02:40:27.281Z,6.88
2023-05-24T02:42:55.573Z,6.20
2023-05-24T02:45:23.829Z,6.43
2023-05-24T02:47:53.664Z,7.32
2023-05-24T02:50:21.990Z,6.80
2023-05-24T02:52:50.205Z,5.90
2023-05-24T02:55:19.042Z,6.97
2023-05-24T02:57:48.104Z,6.88
2023-05-24T03:00:18.624Z,6.38
2023-05-24T03:02:51.064Z,6.57
2023-05-24T03:05:21.200Z,6.93
2023-05-24T03:07:49.461Z,7.10
2023-05-24T03:10:18.087Z,8.30
2023-05-24T03:12:46.368Z,7.00
2023-05-24T03:15:14.809Z,8.23
2023-05-24T03:17:43.176Z,6.68
2023-05-24T03:20:13.196Z,6.53
2023-05-24T03:22:43.247Z,7.10
2023-05-24T03:25:11.737Z,8.30
2023-05-24T03:27:40.213Z,7.05
2023-05-24T03:30:10.125Z,8.82
2023-05-24T03:32:47.331Z,8.70
2023-05-24T03:35:15.780Z,6.90
2023-05-24T03:37:45.446Z,7.60
2023-05-24T03:40:14.079Z,8.20
2023-05-24T03:42:57.375Z,8.25
2023-05-24T03:45:43.232Z,6.95
2023-05-24T03:48:11.723Z,7.43
2023-05-24T03:50:40.451Z,8.43
2023-05-24T03:53:10.199Z,7.72
2023-05-24T03:55:39.915Z,7.40
2023-05-24T03:58:08.178Z,7.45
2023-05-24T04:00:37.226Z,7.97
2023-05-24T04:03:06.831Z,6.78
2023-05-24T04:05:35.403Z,8.43
2023-05-24T04:08:04.265Z,8.57
2023-05-24T04:10:33.997Z,8.05
2023-05-24T04:13:02.312Z,8.02
2023-05-24T04:15:31.074Z,7.70
2023-05-24T04:18:00.629Z,7.40
2023-05-24T04:20:30.139Z,6.93
2023-05-24T04:22:58.577Z,7.88
2023-05-24T04:25:26.881Z,7.82
2023-05-24T04:27:57.568Z,6.80
2023-05-24T04:30:26.408Z,6.90
2023-05-24T04:32:54.656Z,9.05
2023-05-24T04:35:23.102Z,8.13
2023-05-24T04:37:51.356Z,8.73
2023-05-24T04:40:22.923Z,8.70
2023-05-24T04:42:51.615Z,7.75
2023-05-24T04:45:21.259Z,7.78
2023-05-24T04:47:49.604Z,8.30
2023-05-24T04:50:18.290Z,8.15
2023-05-24T04:52:46.986Z,10.52
2023-05-24T04:55:15.505Z,9.07
2023-05-24T04:57:43.746Z,9.30
2023-05-24T05:00:13.269Z,9.35
2023-05-24T05:02:43.062Z,18.73
2023-05-24T05:05:12.674Z,21.63
2023-05-24T05:07:40.895Z,22.30
2023-05-24T05:10:10.151Z,14.98
2023-05-24T05:12:38.771Z,14.55
2023-05-24T05:15:08.520Z,15.60
2023-05-24T05:17:36.832Z,11.52
2023-05-24T05:20:08.043Z,11.75
2023-05-24T05:22:36.387Z,11.77
2023-05-24T05:25:05.259Z,10.25
2023-05-24T05:27:33.644Z,12.60
2023-05-24T05:30:01.887Z,10.82
2023-05-24T05:32:30.329Z,9.38
2023-05-24T05:34:58.620Z,9.02
2023-05-24T05:37:28.306Z,10.57
2023-05-24T05:39:56.829Z,9.15
2023-05-24T05:42:25.185Z,7.35
2023-05-24T05:44:53.667Z,7.97
2023-05-24T05:47:21.885Z,9.40
2023-05-24T05:49:50.136Z,9.00
2023-05-24T05:52:18.355Z,7.00
2023-05-24T05:54:47.947Z,8.43
2023-05-24T05:57:16.424Z,9.75
2023-05-24T05:59:44.701Z,8.48
2023-05-24T06:02:13.008Z,6.38
2023-05-24T06:04:41.570Z,7.35
2023-05-24T06:07:09.868Z,7.30
2023-05-24T06:09:38.098Z,7.32
2023-05-24T06:12:08.275Z,7.07
2023-05-24T06:14:38.450Z,8.45
2023-05-24T06:17:06.862Z,8.40
2023-05-24T06:19:35.321Z,7.53
2023-05-24T06:22:03.584Z,9.98
2023-05-24T06:24:34.673Z,7.85
2023-05-24T06:27:05.344Z,9.18
2023-05-24T06:29:35.361Z,9.70
2023-05-24T06:32:03.813Z,7.85
2023-05-24T06:34:32.059Z,7.70
2023-05-24T06:37:00.359Z,9.60
2023-05-24T06:39:28.712Z,8.00
2023-05-24T06:41:57.580Z,9.30
2023-05-24T06:44:32.018Z,9.43
2023-05-24T06:47:02.181Z,8.80
2023-05-24T06:49:30.649Z,9.15
2023-05-24T06:51:58.934Z,10.05
2023-05-24T06:54:27.250Z,8.30
2023-05-24T06:56:55.865Z,9.13
2023-05-24T06:59:24.216Z,12.38
2023-05-24T07:01:58.376Z,14.38
2023-05-24T07:04:29.827Z,12.98
2023-05-24T07:06:58.573Z,11.10
2023-05-24T07:09:29.146Z,9.70
2023-05-24T07:11:57.440Z,11.07
2023-05-24T07:14:26.167Z,11.40
2023-05-24T07:16:57.394Z,13.23
2023-05-24T07:19:29.241Z,12.50
2023-05-24T07:21:59.080Z,12.00
2023-05-24T07:24:27.742Z,12.65
2023-05-24T07:26:56.860Z,11.85
2023-05-24T07:29:25.983Z,11.52
2023-05-24T07:31:55.865Z,11.10
2023-05-24T07:34:27.554Z,12.10
2023-05-24T07:36:56.088Z,10.10
2023-05-24T07:39:27.361Z,11.50
2023-05-24T07:41:55.641Z,10.93
2023-05-24T07:44:24.484Z,11.85
2023-05-24T07:46:53.012Z,11.38
2023-05-24T07:49:22.150Z,11.20
2023-05-24T07:51:50.493Z,11.48
2023-05-24T07:54:18.797Z,9.73
2023-05-24T07:56:48.340Z,9.45
2023-05-24T07:59:16.778Z,8.82
2023-05-24T08:01:44.997Z,9.65
2023-05-24T08:04:13.333Z,8.77
2023-05-24T08:06:41.936Z,12.05
2023-05-24T08:09:10.430Z,10.05
2023-05-24T08:11:38.755Z,11.40
2023-05-24T08:14:08.311Z,11.20
2023-05-24T08:16:36.595Z,11.57
2023-05-24T08:19:04.862Z,9.30
2023-05-24T08:21:33.857Z,9.23
2023-05-24T08:24:02.088Z,10.48
2023-05-24T08:26:30.476Z,9.55
2023-05-24T08:28:58.675Z,10.82
2023-05-24T08:31:28.324Z,9.38
2023-05-24T08:33:57.765Z,9.15
2023-05-24T08:36:26.465Z,12.63
2023-05-24T08:38:54.757Z,11.43
2023-05-24T08:41:23.049Z,12.35
2023-05-24T08:43:52.668Z,15.57
2023-05-24T08:46:21.441Z,20.00
2023-05-24T08:48:52.820Z,16.08
2023-05-24T08:51:21.594Z,15.23
2023-05-24T08:53:51.737Z,13.02
2023-05-24T08:56:20.596Z,17.17
2023-05-24T08:58:49.382Z,18.50
2023-05-24T09:01:18.418Z,15.50
2023-05-24T09:03:48.521Z,15.18
2023-05-24T09:06:20.395Z,14.60
2023-05-24T09:08:52.504Z,16.60
2023-05-24T09:11:22.874Z,11.50
2023-05-24T09:13:51.812Z,13.25
2023-05-24T09:16:20.366Z,10.57
2023-05-24T09:18:48.729Z,13.35
2023-05-24T09:21:18.852Z,11.70
2023-05-24T09:23:47.392Z,11.95
2023-05-24T09:26:15.933Z,15.35
2023-05-24T09:28:44.367Z,13.23
2023-05-24T09:31:13.765Z,12.25
2023-05-24T09:33:42.098Z,11.07
2023-05-24T09:36:11.269Z,12.63
2023-05-24T09:38:41.381Z,12.02
2023-05-24T09:41:11.011Z,11.90
2023-05-24T09:43:50.024Z,10.85
2023-05-24T09:46:19.654Z,13.23
2023-05-24T09:48:58.395Z,12.60
2023-05-24T09:51:27.130Z,14.85
2023-05-24T09:54:01.657Z,11.88
2023-05-24T09:56:31.253Z,15.35
2023-05-24T09:58:59.709Z,13.65
2023-05-24T10:01:28.375Z,12.63
2023-05-24T10:03:58.288Z,13.13
2023-05-24T10:06:26.951Z,16.05
2023-05-24T10:08:57.036Z,12.75
2023-05-24T10:11:27.684Z,14.80
2023-05-24T10:13:56.967Z,14.70
2023-05-24T10:16:25.274Z,14.40
2023-05-24T10:18:54.467Z,10.35
2023-05-24T10:21:25.899Z,13.15
2023-05-24T10:23:59.732Z,13.23
2023-05-24T10:26:33.264Z,16.08
2023-05-24T10:29:08.702Z,12.00
2023-05-24T10:31:40.383Z,15.45
2023-05-24T10:34:09.896Z,14.38
2023-05-24T10:36:40.474Z,14.00
2023-05-24T10:39:12.372Z,15.23
2023-05-24T10:41:43.388Z,14.88
2023-05-24T10:44:15.010Z,12.88
2023-05-24T10:47:19.711Z,14.52
2023-05-24T10:49:52.808Z,15.32
2023-05-24T10:52:21.438Z,12.77
2023-05-24T10:55:08.005Z,15.15
2023-05-24T11:03:04.057Z,12.18
2023-05-24T11:05:37.289Z,16.95
2023-05-24T11:08:09.556Z,20.17
2023-05-24T11:10:38.472Z,14.38
2023-05-24T11:13:10.972Z,14.88
2023-05-24T11:15:39.677Z,14.75
2023-05-24T11:18:17.706Z,14.60
2023-05-24T11:20:46.927Z,13.32
2023-05-24T11:23:16.715Z,15.90
2023-05-24T11:25:46.218Z,12.50
2023-05-24T11:28:16.261Z,14.65
2023-05-24T11:30:45.862Z,13.40
2023-05-24T11:33:20.790Z,13.45
2023-05-24T11:35:50.816Z,13.20
2023-05-24T11:38:24.148Z,14.27
2023-05-24T11:40:53.332Z,16.45
2023-05-24T11:43:23.115Z,14.20
2023-05-24T11:45:52.837Z,16.83
2023-05-24T11:48:21.335Z,13.15
2023-05-24T11:50:50.640Z,12.73
2023-05-24T11:53:21.082Z,16.40
2023-05-24T11:55:51.390Z,14.57
2023-05-24T11:58:26.438Z,14.68
2023-05-24T12:00:54.817Z,17.42
2023-05-24T12:03:23.313Z,15.10
2023-05-24T12:05:52.731Z,12.35
2023-05-24T12:08:21.390Z,13.02
2023-05-24T12:10:51.779Z,11.27
2023-05-24T12:13:24.255Z,15.73
2023-05-24T12:15:57.118Z,15.40
2023-05-24T12:18:27.277Z,15.65
2023-05-24T12:20:55.941Z,11.88
2023-05-24T12:23:27.699Z,13.60
2023-05-24T12:25:59.808Z,13.27
2023-05-24T12:28:28.643Z,18.10
2023-05-24T12:31:07.177Z,14.52
2023-05-24T12:33:35.874Z,13.75
2023-05-24T12:36:04.219Z,12.15
2023-05-24T12:38:33.124Z,17.05
2023-05-24T12:43:33.954Z,12.30
2023-05-24T12:46:02.164Z,12.15
2023-05-24T12:48:32.221Z,10.13
2023-05-24T12:51:00.603Z,10.07
2023-05-24T12:53:28.852Z,14.02
2023-05-24T12:55:57.256Z,12.77
2023-05-24T12:58:26.258Z,10.23
2023-05-24T13:00:54.709Z,11.85
2023-05-24T13:03:23.227Z,12.68
2023-05-24T13:05:52.919Z,9.43
2023-05-24T13:08:21.782Z,12.18
2023-05-24T13:10:50.926Z,11.68
2023-05-24T13:13:19.174Z,11.95
2023-05-24T13:15:47.673Z,11.13
2023-05-24T13:18:16.295Z,9.23
2023-05-24T13:20:44.866Z,10.18
2023-05-24T13:23:14.659Z,13.55
2023-05-24T13:25:42.988Z,11.15
2023-05-24T13:28:11.457Z,11.60
2023-05-24T13:30:39.815Z,11.02
2023-05-24T13:33:08.182Z,12.10
2023-05-24T13:35:36.670Z,10.35
2023-05-24T13:38:04.932Z,9.23
2023-05-24T13:40:34.630Z,23.23
2023-05-24T13:43:02.850Z,14.40
2023-05-24T13:45:33.121Z,15.45
2023-05-24T13:48:03.961Z,15.90
2023-05-24T13:50:32.480Z,16.63
2023-05-24T13:53:02.110Z,12.50
2023-05-24T13:55:30.469Z,17.25
2023-05-24T13:58:01.559Z,12.20
2023-05-24T14:00:32.251Z,15.32
2023-05-24T14:03:00.555Z,14.93
2023-05-24T14:05:30.547Z,14.60
2023-05-24T14:08:04.205Z,14.38
2023-05-24T14:10:32.663Z,13.95
2023-05-24T14:13:16.130Z,14.15
2023-05-24T14:15:50.984Z,12.70
2023-05-24T14:18:19.714Z,14.23
2023-05-24T14:20:47.888Z,13.07
2023-05-24T14:23:18.236Z,11.32
2023-05-24T14:25:47.117Z,11.35
2023-05-24T14:28:16.971Z,14.07
2023-05-24T14:30:45.604Z,14.73
2023-05-24T14:33:13.999Z,10.90
2023-05-24T14:35:42.633Z,13.02
2023-05-24T14:38:12.063Z,9.85
2023-05-24T14:40:40.942Z,11.75
2023-05-24T14:43:11.066Z,11.35
2023-05-24T14:45:42.238Z,10.32
2023-05-24T14:50:41.857Z,10.77
2023-05-24T14:53:12.214Z,9.85
2023-05-24T14:55:42.707Z,14.10
2023-05-24T14:58:12.632Z,15.43
2023-05-24T15:00:43.045Z,14.25
2023-05-24T15:03:12.744Z,13.18
2023-05-24T15:05:42.553Z,17.20
2023-05-24T15:08:11.015Z,14.95
2023-05-24T15:10:40.262Z,12.50
2023-05-24T15:13:08.581Z,12.48
2023-05-24T15:15:36.973Z,13.13
2023-05-24T15:18:08.191Z,10.82
2023-05-24T15:20:36.729Z,13.30
2023-05-24T15:23:06.393Z,12.32
2023-05-24T15:25:34.655Z,13.43
2023-05-24T15:28:03.133Z,15.43
2023-05-24T15:30:33.972Z,12.82
2023-05-24T15:33:02.277Z,12.10
2023-05-24T15:35:32.173Z,13.65
2023-05-24T15:38:00.613Z,12.10
2023-05-24T15:40:28.834Z,10.63
2023-05-24T15:42:57.131Z,13.45
2023-05-24T15:45:25.620Z,10.60
2023-05-24T15:47:54.784Z,11.00
2023-05-24T15:50:35.986Z,10.75
2023-05-24T15:53:12.804Z,14.48
2023-05-24T15:55:41.126Z,10.50
2023-05-24T15:58:09.328Z,13.15
2023-05-24T16:00:37.565Z,12.90
2023-05-24T16:03:06.578Z,14.32
2023-05-24T16:05:34.962Z,12.60
2023-05-24T16:08:03.307Z,11.52
2023-05-24T16:10:32.953Z,9.55
2023-05-24T16:13:01.248Z,10.50
2023-05-24T16:15:30.407Z,9.48
2023-05-24T16:17:58.712Z,9.65
2023-05-24T16:20:27.100Z,10.05
2023-05-24T16:22:55.363Z,11.77
2023-05-24T16:25:23.841Z,12.23
2023-05-24T16:27:56.450Z,7.45
2023-05-24T16:30:25.600Z,11.45
2023-05-24T16:32:54.205Z,10.80
2023-05-24T16:35:22.756Z,11.32
2023-05-24T16:37:52.588Z,10.07
2023-05-24T16:40:21.280Z,10.15
2023-05-24T16:42:51.366Z,14.55
2023-05-24T16:45:21.219Z,9.38
2023-05-24T16:47:49.983Z,92.38
2023-05-24T16:50:18.815Z,173.43
2023-05-24T16:52:47.395Z,169.80
2023-05-24T16:55:16.093Z,302.58
2023-05-24T16:57:44.479Z,361.90
2023-05-24T17:00:15.266Z,215.35
2023-05-24T17:02:45.295Z,234.87
2023-05-24T17:05:13.638Z,152.00
2023-05-24T17:07:42.798Z,194.85
2023-05-24T17:10:11.434Z,238.68
2023-05-24T17:12:39.873Z,278.90
2023-05-24T17:15:08.951Z,257.40
2023-05-24T17:17:37.193Z,257.33
2023-05-24T17:20:08.077Z,124.90
2023-05-24T17:22:36.615Z,113.97
2023-05-24T17:25:05.293Z,93.70
2023-05-24T17:27:33.602Z,93.47
2023-05-24T17:30:01.823Z,78.65
2023-05-24T17:32:30.309Z,82.80
2023-05-24T17:34:58.508Z,76.78
2023-05-24T17:37:28.148Z,67.53
2023-05-24T17:39:56.477Z,74.60
2023-05-24T17:42:24.875Z,62.42
2023-05-24T17:44:53.215Z,59.90
2023-05-24T17:47:21.664Z,56.40
2023-05-24T17:49:50.046Z,47.05
2023-05-24T17:52:19.894Z,39.22
2023-05-24T17:54:49.683Z,46.05
2023-05-24T17:57:17.974Z,30.15
2023-05-24T17:59:46.323Z,35.20
2023-05-24T18:02:14.582Z,39.45
2023-05-24T18:04:43.105Z,33.45
2023-05-24T18:07:11.505Z,22.17
2023-05-24T18:09:39.794Z,25.15
2023-05-24T18:12:09.823Z,21.42
2023-05-24T18:14:38.165Z,17.55
2023-05-24T18:17:06.610Z,20.40
2023-05-24T18:19:34.956Z,18.77
2023-05-24T18:22:03.340Z,16.50
2023-05-24T18:24:31.634Z,15.07
2023-05-24T18:26:59.879Z,15.57
2023-05-24T18:29:29.456Z,16.85
2023-05-24T18:31:57.735Z,16.35
2023-05-24T18:34:26.070Z,17.45
2023-05-24T18:36:55.457Z,15.02
2023-05-24T18:39:23.772Z,15.15
2023-05-24T18:41:52.291Z,17.75
2023-05-24T18:44:20.612Z,18.17
2023-05-24T18:46:50.680Z,18.25
2023-05-24T18:49:18.941Z,14.05
2023-05-24T18:51:47.258Z,13.55
2023-05-24T18:54:15.586Z,13.52
2023-05-24T18:56:43.983Z,16.42
2023-05-24T18:59:12.760Z,15.20
2023-05-24T19:01:41.605Z,17.10
2023-05-24T19:04:11.638Z,11.55
2023-05-24T19:06:40.021Z,14.23
2023-05-24T19:09:08.203Z,11.68
2023-05-24T19:11:36.645Z,11.50
2023-05-24T19:14:04.855Z,13.85
2023-05-24T19:16:33.793Z,12.27
2023-05-24T19:19:02.262Z,12.02
2023-05-24T19:21:33.115Z,12.77
2023-05-24T19:24:01.492Z,11.35
2023-05-24T19:26:29.770Z,11.55
2023-05-24T19:28:58.336Z,13.75
2023-05-24T19:31:27.884Z,9.07
2023-05-24T19:34:00.629Z,9.75
2023-05-24T19:36:32.914Z,10.95
2023-05-24T19:39:01.319Z,9.02
2023-05-24T19:41:30.871Z,11.60
2023-05-24T19:43:59.255Z,12.05
2023-05-24T19:46:27.898Z,10.25
2023-05-24T19:48:56.222Z,9.48
2023-05-24T19:51:24.396Z,11.63
2023-05-24T19:53:54.065Z,12.23
2023-05-24T19:56:23.539Z,13.80
2023-05-24T19:58:52.187Z,10.43
2023-05-24T20:01:20.577Z,9.85
2023-05-24T20:03:49.411Z,14.65
2023-05-24T20:06:18.213Z,10.63
2023-05-24T20:08:47.853Z,12.45
2023-05-24T20:11:17.765Z,13.18
2023-05-24T20:13:46.017Z,12.82
2023-05-24T20:16:14.303Z,11.40
2023-05-24T20:18:42.750Z,12.68
2023-05-24T20:21:11.218Z,11.85
2023-05-24T20:23:39.543Z,10.75
2023-05-24T20:26:07.829Z,10.18
2023-05-24T20:28:37.641Z,12.13
2023-05-24T20:31:06.011Z,11.77
2023-05-24T20:33:38.086Z,11.93
2023-05-24T20:36:08.134Z,12.63
2023-05-24T20:38:37.374Z,11.25
2023-05-24T20:41:05.929Z,9.55
2023-05-24T20:43:34.205Z,13.20
2023-05-24T20:46:03.846Z,11.50
2023-05-24T20:48:32.170Z,11.63
2023-05-24T20:51:00.414Z,12.20
2023-05-24T20:53:28.676Z,13.02
2023-05-24T20:55:57.673Z,14.15
2023-05-24T20:58:26.027Z,11.32
2023-05-24T21:00:54.794Z,11.65
2023-05-24T21:03:24.721Z,11.30
2023-05-24T21:05:53.091Z,9.75
2023-05-24T21:08:21.410Z,12.77
2023-05-24T21:10:49.732Z,11.68
2023-05-24T21:13:20.410Z,11.48
2023-05-24T21:15:50.712Z,11.37
2023-05-24T21:18:19.196Z,10.20
2023-05-24T21:20:48.896Z,10.55
2023-05-24T21:23:17.199Z,10.52
2023-05-24T21:25:45.553Z,8.13
2023-05-24T21:28:14.160Z,13.43
2023-05-24T21:30:42.426Z,9.23
2023-05-24T21:33:10.760Z,11.00
2023-05-24T21:35:39.207Z,11.00
2023-05-24T21:38:09.089Z,8.15
2023-05-24T21:40:37.419Z,9.35
2023-05-24T21:43:05.800Z,10.80
2023-05-24T21:45:34.122Z,17.85
2023-05-24T21:48:02.447Z,26.67
2023-05-24T21:50:30.735Z,73.55
2023-05-24T21:52:58.985Z,101.57
2023-05-24T21:55:30.183Z,78.55
2023-05-24T21:57:58.514Z,81.25
2023-05-24T22:00:28.009Z,31.17
2023-05-24T22:02:56.425Z,35.50
2023-05-24T22:05:27.507Z,86.65
2023-05-24T22:07:56.188Z,124.43
2023-05-24T22:10:24.456Z,138.95
2023-05-24T22:12:54.066Z,140.35
2023-05-24T22:15:22.369Z,120.65
2023-05-24T22:17:50.764Z,175.60
2023-05-24T22:20:19.305Z,111.15
2023-05-24T22:22:53.497Z,74.45
2023-05-24T22:25:22.274Z,83.30
2023-05-24T22:27:50.978Z,117.07
2023-05-24T22:30:20.639Z,188.82
2023-05-24T22:32:49.168Z,114.53
2023-05-24T22:35:17.556Z,122.63
2023-05-24T22:37:45.997Z,115.88
2023-05-24T22:40:14.873Z,98.13
2023-05-24T22:42:43.232Z,70.35
2023-05-24T22:45:12.257Z,51.08
2023-05-24T22:47:41.919Z,51.70
2023-05-24T22:50:10.879Z,62.08
2023-05-24T22:52:42.452Z,75.97
2023-05-24T22:57:39.808Z,111.45
2023-05-24T23:00:09.730Z,134.23
2023-05-24T23:02:38.124Z,73.50
2023-05-24T23:05:09.650Z,47.67
2023-05-24T23:07:39.914Z,32.83
2023-05-24T23:10:09.385Z,28.50
2023-05-24T23:12:37.645Z,23.40
2023-05-24T23:15:06.538Z,21.95
2023-05-24T23:17:34.871Z,23.13
2023-05-24T23:20:05.122Z,20.50
2023-05-24T23:22:37.561Z,16.92
2023-05-24T23:25:06.729Z,15.07
2023-05-24T23:27:35.059Z,18.35
2023-05-24T23:30:03.534Z,16.95
2023-05-24T23:32:31.782Z,11.20
2023-05-24T23:35:00.238Z,9.68
2023-05-24T23:37:28.747Z,11.95
2023-05-24T23:40:02.401Z,11.82
2023-05-24T23:42:30.861Z,9.57
2023-05-24T23:44:59.077Z,10.13
2023-05-24T23:47:27.351Z,10.60
2023-05-24T23:49:55.648Z,9.18
2023-05-24T23:52:25.064Z,10.43
2023-05-24T23:54:53.343Z,8.98
2023-05-24T23:57:24.966Z,9.75
